createdAt,value
2019-06-07T00:02:02.702Z,14.10
2019-06-07T00:04:30.455Z,14.10
2019-06-07T00:06:58.126Z,14.00
2019-06-07T00:09:25.790Z,13.90
2019-06-07T00:11:53.476Z,13.90
2019-06-07T00:14:21.396Z,13.80
2019-06-07T00:16:49.297Z,13.70
2019-06-07T00:19:18.838Z,13.70
2019-06-07T00:22:15.691Z,13.60
2019-06-07T00:24:16.831Z,13.50
2019-06-07T00:26:57.838Z,13.40
2019-06-07T00:29:16.812Z,13.30
2019-06-07T00:31:44.516Z,13.30
2019-06-07T00:34:13.890Z,13.20
2019-06-07T00:36:41.630Z,13.20
2019-06-07T00:39:10.588Z,13.10
2019-06-07T00:41:38.807Z,13.10
2019-06-07T00:44:06.468Z,13.10
2019-06-07T00:46:34.154Z,13.00
2019-06-07T00:49:01.772Z,13.00
2019-06-07T00:51:49.651Z,13.00
2019-06-07T00:53:59.212Z,13.00
2019-06-07T00:56:26.897Z,13.00
2019-06-07T00:59:10.862Z,13.00
2019-06-07T01:01:25.518Z,13.00
2019-06-07T01:03:53.411Z,13.00
2019-06-07T01:06:22.917Z,13.00
2019-06-07T01:08:50.562Z,12.90
2019-06-07T01:11:20.617Z,12.90
2019-06-07T01:13:47.694Z,12.90
2019-06-07T01:16:16.266Z,12.80
2019-06-07T01:18:46.887Z,12.80
2019-06-07T01:21:15.911Z,12.70
2019-06-07T01:24:12.827Z,12.60
2019-06-07T01:26:12.504Z,12.50
2019-06-07T01:28:40.178Z,12.50
2019-06-07T01:31:07.834Z,12.40
2019-06-07T01:33:50.481Z,12.40
2019-06-07T01:36:04.971Z,12.30
2019-06-07T01:38:32.663Z,12.30
2019-06-07T01:41:00.299Z,12.20
2019-06-07T01:43:30.547Z,12.20
2019-06-07T01:45:57.460Z,12.10
2019-06-07T01:48:29.607Z,12.10
2019-06-07T01:50:54.586Z,12.00
2019-06-07T01:53:24.262Z,11.90
2019-06-07T01:55:51.798Z,11.90
2019-06-07T01:58:19.882Z,11.90
2019-06-07T02:00:48.299Z,11.80
2019-06-07T02:03:15.919Z,11.80
2019-06-07T02:05:43.589Z,11.70
2019-06-07T02:08:11.256Z,11.60
2019-06-07T02:10:38.961Z,11.60
2019-06-07T02:13:06.660Z,11.50
2019-06-07T02:15:36.539Z,11.50
2019-06-07T02:18:03.885Z,11.50
2019-06-07T02:20:34.234Z,11.40
2019-06-07T02:23:01.015Z,11.30
2019-06-07T02:25:40.578Z,11.20
2019-06-07T02:28:26.096Z,11.20
2019-06-07T02:30:50.561Z,11.10
2019-06-07T02:32:57.096Z,11.10
2019-06-07T02:35:30.900Z,11.00
2019-06-07T02:37:54.177Z,11.00
2019-06-07T02:40:22.065Z,11.00
2019-06-07T02:42:49.698Z,10.90
2019-06-07T02:45:17.441Z,10.80
2019-06-07T02:47:46.311Z,10.80
2019-06-07T02:50:14.434Z,10.70
2019-06-07T02:52:42.393Z,10.70
2019-06-07T02:55:10.767Z,10.60
2019-06-07T02:57:41.866Z,10.60
2019-06-07T03:00:40.605Z,10.60
2019-06-07T03:02:41.475Z,10.50
2019-06-07T03:05:10.217Z,10.50
2019-06-07T03:07:44.172Z,10.40
2019-06-07T03:10:09.078Z,10.40
2019-06-07T03:12:39.518Z,10.30
2019-06-07T03:15:07.519Z,10.30
2019-06-07T03:17:55.642Z,10.30
2019-06-07T03:20:23.540Z,10.20
2019-06-07T03:22:51.208Z,10.20
2019-06-07T03:25:18.867Z,10.20
2019-06-07T03:27:50.208Z,10.30
2019-06-07T03:30:38.687Z,10.20
2019-06-07T03:32:48.285Z,10.20
2019-06-07T03:35:16.116Z,10.20
2019-06-07T03:37:43.791Z,10.20
2019-06-07T03:40:11.552Z,10.20
2019-06-07T03:42:40.199Z,10.20
2019-06-07T03:45:08.126Z,10.20
2019-06-07T03:47:38.509Z,10.20
2019-06-07T03:50:05.655Z,10.20
2019-06-07T03:52:35.547Z,10.20
2019-06-07T03:55:03.230Z,10.20
2019-06-07T03:58:23.855Z,10.30
2019-06-07T04:00:00.858Z,10.40
2019-06-07T04:02:30.266Z,10.40
2019-06-07T04:04:57.888Z,10.50
2019-06-07T04:07:25.541Z,10.50
2019-06-07T04:09:53.206Z,10.60
2019-06-07T04:12:20.819Z,10.60
2019-06-07T04:14:48.479Z,10.70
2019-06-07T04:17:16.144Z,10.80
2019-06-07T04:19:43.943Z,10.90
2019-06-07T04:22:11.534Z,11.00
2019-06-07T04:24:41.907Z,11.10
2019-06-07T04:27:08.649Z,11.20
2019-06-07T04:30:00.043Z,11.30
2019-06-07T04:32:05.799Z,11.60
2019-06-07T04:34:37.505Z,11.90
2019-06-07T04:37:03.116Z,12.20
2019-06-07T04:39:34.035Z,12.30
2019-06-07T04:42:02.158Z,12.50
2019-06-07T04:44:34.951Z,12.60
2019-06-07T04:47:02.766Z,12.80
2019-06-07T04:49:33.434Z,12.90
2019-06-07T04:52:04.098Z,13.10
2019-06-07T04:54:33.414Z,13.30
2019-06-07T04:57:01.421Z,13.50
2019-06-07T05:00:04.129Z,13.70
2019-06-07T05:01:58.539Z,13.70
2019-06-07T05:04:26.204Z,13.90
2019-06-07T05:06:53.851Z,14.00
2019-06-07T05:09:21.547Z,14.10
2019-06-07T05:11:49.339Z,14.20
2019-06-07T05:14:16.973Z,14.30
2019-06-07T05:16:44.751Z,14.40
2019-06-07T05:19:12.700Z,14.60
2019-06-07T05:21:59.846Z,14.90
2019-06-07T05:24:10.814Z,15.30
2019-06-07T05:26:40.511Z,15.70
2019-06-07T05:29:08.150Z,16.20
2019-06-07T05:31:39.023Z,16.60
2019-06-07T05:34:05.261Z,17.00
2019-06-07T05:36:36.654Z,17.40
2019-06-07T05:39:02.472Z,17.80
2019-06-07T05:41:37.115Z,18.20
2019-06-07T05:44:12.667Z,18.70
2019-06-07T05:46:38.625Z,18.80
2019-06-07T05:49:06.881Z,19.00
2019-06-07T05:51:34.789Z,19.10
2019-06-07T05:54:02.835Z,19.20
2019-06-07T05:56:30.461Z,19.30
2019-06-07T05:58:58.158Z,19.70
2019-06-07T06:01:43.153Z,20.00
2019-06-07T06:03:55.420Z,20.00
2019-06-07T06:06:23.096Z,19.90
2019-06-07T06:08:50.747Z,20.10
2019-06-07T06:11:18.403Z,20.00
2019-06-07T06:14:05.191Z,20.00
2019-06-07T06:16:15.523Z,20.20
2019-06-07T06:18:46.851Z,20.30
2019-06-07T06:21:19.289Z,20.30
2019-06-07T06:23:44.776Z,20.20
2019-06-07T06:26:11.569Z,20.30
2019-06-07T06:28:40.160Z,20.40
2019-06-07T06:31:07.797Z,20.60
2019-06-07T06:33:35.614Z,20.40
2019-06-07T06:36:03.242Z,20.30
2019-06-07T06:38:31.470Z,20.30
2019-06-07T06:41:14.475Z,20.50
2019-06-07T06:43:28.640Z,20.30
2019-06-07T06:45:56.344Z,20.60
2019-06-07T06:48:24.054Z,20.80
2019-06-07T06:50:52.705Z,20.80
2019-06-07T06:53:20.507Z,20.70
2019-06-07T06:55:50.854Z,21.00
2019-06-07T06:58:17.659Z,21.60
2019-06-07T07:00:59.351Z,21.80
2019-06-07T07:05:50.804Z,22.30
2019-06-07T07:08:17.514Z,22.40
2019-06-07T07:10:46.157Z,22.40
2019-06-07T07:13:15.151Z,22.50
2019-06-07T07:15:43.355Z,22.40
2019-06-07T07:18:12.313Z,22.30
2019-06-07T07:20:40.013Z,22.40
2019-06-07T07:23:07.713Z,22.70
2019-06-07T07:25:35.473Z,22.90
2019-06-07T07:28:03.532Z,22.50
2019-06-07T07:30:47.383Z,22.20
2019-06-07T07:33:15.702Z,22.50
2019-06-07T07:36:09.714Z,22.50
2019-06-07T07:38:13.218Z,22.60
2019-06-07T07:41:07.595Z,22.70
2019-06-07T07:43:10.434Z,22.60
2019-06-07T07:45:38.233Z,22.90
2019-06-07T07:48:15.252Z,23.00
2019-06-07T07:50:35.515Z,22.50
2019-06-07T07:53:03.690Z,22.80
2019-06-07T07:55:31.452Z,23.00
2019-06-07T07:58:01.641Z,22.90
2019-06-07T08:00:52.435Z,23.00
2019-06-07T08:03:04.365Z,23.20
2019-06-07T08:05:42.323Z,23.00
2019-06-07T08:08:05.018Z,23.00
2019-06-07T08:10:32.666Z,22.90
2019-06-07T08:13:22.726Z,23.30
2019-06-07T08:15:29.819Z,23.20
2019-06-07T08:18:03.289Z,23.50
2019-06-07T08:20:26.955Z,23.40
2019-06-07T08:22:57.772Z,23.50
2019-06-07T08:25:24.176Z,23.70
2019-06-07T08:27:52.475Z,23.90
2019-06-07T08:32:57.568Z,23.10
2019-06-07T08:36:03.216Z,23.10
2019-06-07T08:40:21.449Z,22.90
2019-06-07T08:43:10.267Z,23.00
2019-06-07T08:45:19.235Z,22.90
2019-06-07T08:47:46.876Z,22.90
2019-06-07T08:50:18.125Z,22.90
2019-06-07T08:52:45.871Z,22.90
2019-06-07T08:55:13.963Z,23.00
2019-06-07T08:57:41.618Z,23.00
2019-06-07T09:00:42.486Z,22.90
2019-06-07T09:02:39.352Z,22.80
2019-06-07T09:05:12.248Z,22.60
2019-06-07T09:07:37.091Z,22.90
2019-06-07T09:10:09.423Z,23.10
2019-06-07T09:12:34.494Z,22.90
2019-06-07T09:15:14.824Z,22.90
2019-06-07T09:17:31.695Z,22.90
2019-06-07T09:20:07.233Z,23.10
2019-06-07T09:22:28.792Z,22.90
2019-06-07T09:25:04.296Z,22.90
2019-06-07T09:27:27.048Z,22.80
2019-06-07T09:30:00.675Z,23.00
2019-06-07T09:32:24.958Z,23.30
2019-06-07T09:34:52.603Z,23.40
2019-06-07T09:38:03.528Z,23.30
2019-06-07T09:39:50.590Z,23.00
2019-06-07T09:42:18.227Z,22.90
2019-06-07T09:44:45.865Z,22.80
2019-06-07T09:47:30.959Z,22.80
2019-06-07T09:49:42.966Z,22.90
2019-06-07T09:52:11.212Z,22.90
2019-06-07T09:57:16.472Z,22.60
2019-06-07T09:59:37.944Z,22.80
2019-06-07T10:02:08.645Z,22.80
2019-06-07T10:04:35.077Z,23.10
2019-06-07T10:07:09.140Z,23.30
2019-06-07T10:12:02.325Z,23.70
2019-06-07T10:14:30.010Z,23.80
2019-06-07T10:16:58.792Z,23.70
2019-06-07T10:19:26.546Z,23.90
2019-06-07T10:21:54.214Z,24.30
2019-06-07T10:24:21.858Z,24.50
2019-06-07T10:26:49.551Z,24.10
2019-06-07T10:29:17.191Z,24.20
2019-06-07T10:31:44.858Z,23.90
2019-06-07T10:34:12.500Z,23.50
2019-06-07T10:36:40.290Z,23.50
2019-06-07T10:39:09.099Z,23.40
2019-06-07T10:41:36.934Z,23.30
2019-06-07T10:44:05.504Z,23.20
2019-06-07T10:46:33.363Z,23.40
2019-06-07T10:49:01.651Z,23.60
2019-06-07T10:51:29.319Z,23.90
2019-06-07T10:53:56.988Z,24.00
2019-06-07T10:56:24.642Z,24.10
2019-06-07T10:58:52.307Z,24.30
2019-06-07T11:01:20.006Z,24.30
2019-06-07T11:03:47.697Z,24.30
2019-06-07T11:06:15.402Z,24.70
2019-06-07T11:08:43.151Z,25.10
2019-06-07T11:11:10.773Z,25.10
2019-06-07T11:13:39.526Z,25.20
2019-06-07T11:16:07.236Z,25.40
2019-06-07T11:18:36.169Z,25.30
2019-06-07T11:21:03.860Z,24.80
2019-06-07T11:23:31.499Z,24.40
2019-06-07T11:25:59.183Z,24.70
2019-06-07T11:28:26.848Z,24.90
2019-06-07T11:30:54.495Z,24.90
2019-06-07T11:33:22.131Z,24.50
2019-06-07T11:35:49.803Z,24.10
2019-06-07T11:38:18.723Z,24.10
2019-06-07T11:40:46.500Z,24.20
2019-06-07T11:43:14.984Z,23.90
2019-06-07T11:45:42.697Z,23.80
2019-06-07T11:48:11.363Z,24.00
2019-06-07T11:50:39.193Z,23.90
2019-06-07T11:53:06.876Z,24.30
2019-06-07T11:55:34.571Z,24.40
2019-06-07T11:58:02.265Z,24.60
2019-06-07T12:00:33.882Z,24.80
2019-06-07T12:02:59.452Z,24.90
2019-06-07T12:05:27.143Z,24.80
2019-06-07T12:07:57.038Z,24.90
2019-06-07T12:10:24.322Z,24.60
2019-06-07T12:12:51.966Z,24.40
2019-06-07T12:15:19.837Z,24.30
2019-06-07T12:17:47.466Z,24.30
2019-06-07T12:20:17.308Z,24.00
2019-06-07T12:22:45.036Z,23.90
2019-06-07T12:25:16.123Z,23.90
2019-06-07T12:27:42.163Z,24.10
2019-06-07T12:30:20.293Z,24.40
2019-06-07T12:32:41.248Z,24.70
2019-06-07T12:35:09.013Z,24.60
2019-06-07T12:37:43.780Z,24.50
2019-06-07T12:40:07.062Z,24.50
2019-06-07T12:42:34.740Z,24.70
2019-06-07T12:45:02.593Z,24.90
2019-06-07T12:47:30.231Z,24.80
2019-06-07T12:49:57.890Z,25.00
2019-06-07T12:52:25.577Z,25.10
2019-06-07T12:54:53.230Z,25.30
2019-06-07T12:57:22.121Z,25.40
2019-06-07T12:59:49.949Z,25.20
2019-06-07T13:02:20.058Z,25.30
2019-06-07T13:04:47.117Z,25.50
2019-06-07T13:07:15.813Z,25.20
2019-06-07T13:09:43.468Z,25.00
2019-06-07T13:12:11.107Z,25.00
2019-06-07T13:14:38.804Z,25.10
2019-06-07T13:17:06.469Z,25.30
2019-06-07T13:19:34.210Z,25.20
2019-06-07T13:22:01.887Z,25.40
2019-06-07T13:24:30.832Z,25.40
2019-06-07T13:26:58.428Z,25.40
2019-06-07T13:29:29.531Z,25.20
2019-06-07T13:31:55.520Z,25.40
2019-06-07T13:34:24.284Z,25.50
2019-06-07T13:36:51.991Z,25.50
2019-06-07T13:39:23.230Z,25.50
2019-06-07T13:41:49.225Z,25.60
2019-06-07T13:44:16.863Z,25.60
2019-06-07T13:46:44.534Z,25.70
2019-06-07T13:49:12.188Z,25.70
2019-06-07T13:51:39.863Z,25.80
2019-06-07T13:54:07.519Z,25.90
2019-06-07T13:56:35.168Z,26.00
2019-06-07T13:59:03.140Z,26.10
2019-06-07T14:01:30.753Z,26.10
2019-06-07T14:03:58.490Z,26.10
2019-06-07T14:06:28.120Z,26.10
2019-06-07T14:08:55.575Z,26.10
2019-06-07T14:11:23.614Z,26.10
2019-06-07T14:13:51.407Z,25.80
2019-06-07T14:16:20.050Z,25.60
2019-06-07T14:18:47.849Z,25.50
2019-06-07T14:21:15.480Z,25.50
2019-06-07T14:23:49.099Z,25.60
2019-06-07T14:26:12.614Z,25.60
2019-06-07T14:28:40.256Z,25.30
2019-06-07T14:31:07.923Z,25.30
2019-06-07T14:33:35.589Z,25.40
2019-06-07T14:36:03.296Z,25.70
2019-06-07T14:38:33.995Z,25.70
2019-06-07T14:41:00.464Z,25.40
2019-06-07T14:43:29.510Z,25.50
2019-06-07T14:45:57.392Z,25.40
2019-06-07T14:48:25.923Z,25.60
2019-06-07T14:50:53.667Z,25.80
2019-06-07T14:53:21.324Z,25.70
2019-06-07T14:55:48.998Z,25.50
2019-06-07T14:58:16.709Z,25.60
2019-06-07T15:00:44.441Z,25.60
2019-06-07T15:03:12.131Z,25.50
2019-06-07T15:05:40.496Z,25.60
2019-06-07T15:08:08.573Z,25.70
2019-06-07T15:10:36.259Z,25.60
2019-06-07T15:13:04.061Z,25.70
2019-06-07T15:15:32.791Z,25.60
2019-06-07T15:18:00.501Z,25.50
2019-06-07T15:20:28.168Z,25.40
2019-06-07T15:22:55.812Z,25.40
2019-06-07T15:25:23.486Z,25.40
2019-06-07T15:27:51.133Z,25.50
2019-06-07T15:30:18.887Z,25.50
2019-06-07T15:32:46.540Z,25.50
2019-06-07T15:35:14.617Z,25.40
2019-06-07T15:37:42.251Z,25.40
2019-06-07T15:40:11.730Z,25.20
2019-06-07T15:42:51.461Z,25.00
2019-06-07T15:45:09.486Z,24.90
2019-06-07T15:47:38.373Z,25.00
2019-06-07T15:50:06.728Z,25.10
2019-06-07T15:52:35.496Z,25.10
2019-06-07T15:55:04.148Z,25.20
2019-06-07T15:57:33.284Z,25.10
2019-06-07T16:00:01.311Z,25.10
2019-06-07T16:02:29.170Z,25.20
2019-06-07T16:04:56.894Z,25.20
2019-06-07T16:07:24.535Z,25.30
2019-06-07T16:09:52.188Z,25.40
2019-06-07T16:12:19.882Z,25.40
2019-06-07T16:14:47.495Z,25.30
2019-06-07T16:17:15.267Z,25.20
2019-06-07T16:19:46.230Z,25.20
2019-06-07T16:22:13.273Z,25.00
2019-06-07T16:24:42.400Z,24.70
2019-06-07T16:27:10.767Z,24.50
2019-06-07T16:29:40.639Z,24.40
2019-06-07T16:32:09.943Z,24.40
2019-06-07T16:34:41.523Z,24.40
2019-06-07T16:37:10.492Z,24.40
2019-06-07T16:39:40.228Z,24.30
2019-06-07T16:42:10.514Z,24.30
2019-06-07T16:44:38.914Z,24.20
2019-06-07T16:47:08.233Z,24.10
2019-06-07T16:49:38.671Z,24.10
2019-06-07T16:52:09.485Z,24.10
2019-06-07T16:54:39.321Z,24.10
2019-06-07T16:57:08.656Z,24.00
2019-06-07T16:59:39.066Z,23.90
2019-06-07T17:02:06.620Z,23.80
2019-06-07T17:04:34.263Z,23.80
2019-06-07T17:07:02.318Z,23.80
2019-06-07T17:09:30.252Z,23.80
2019-06-07T17:11:58.200Z,23.70
2019-06-07T17:14:26.182Z,23.60
2019-06-07T17:16:54.085Z,23.50
2019-06-07T17:19:21.946Z,23.40
2019-06-07T17:21:49.923Z,23.40
2019-06-07T17:24:17.914Z,23.30
2019-06-07T17:26:45.785Z,23.30
2019-06-07T17:29:13.735Z,23.40
2019-06-07T17:31:41.862Z,23.50
2019-06-07T17:34:09.953Z,23.60
2019-06-07T17:36:37.915Z,23.50
2019-06-07T17:39:07.172Z,23.50
2019-06-07T17:41:50.633Z,23.40
2019-06-07T17:44:05.743Z,23.30
2019-06-07T17:46:33.857Z,23.20
2019-06-07T17:49:01.458Z,23.20
2019-06-07T17:51:29.159Z,23.20
2019-06-07T17:53:56.821Z,23.10
2019-06-07T17:56:24.460Z,23.20
2019-06-07T17:58:52.420Z,23.10
2019-06-07T18:01:20.207Z,23.00
2019-06-07T18:03:49.068Z,23.00
2019-06-07T18:06:18.223Z,23.00
2019-06-07T18:08:47.516Z,23.00
2019-06-07T18:11:15.321Z,22.90
2019-06-07T18:13:44.028Z,22.80
2019-06-07T18:16:11.799Z,22.70
2019-06-07T18:18:39.433Z,22.60
2019-06-07T18:21:15.021Z,22.50
2019-06-07T18:23:42.761Z,22.50
2019-06-07T18:26:10.623Z,22.40
2019-06-07T18:28:38.285Z,22.50
2019-06-07T18:31:05.915Z,22.50
2019-06-07T18:33:39.793Z,22.40
2019-06-07T18:36:07.509Z,22.40
2019-06-07T18:38:47.361Z,22.30
2019-06-07T18:41:15.138Z,22.20
2019-06-07T18:43:42.778Z,22.20
2019-06-07T18:46:10.480Z,22.20
2019-06-07T18:48:38.103Z,22.10
2019-06-07T18:51:13.102Z,22.00
2019-06-07T18:53:40.777Z,21.90
2019-06-07T18:56:08.473Z,21.90
2019-06-07T18:58:36.176Z,21.80
2019-06-07T19:01:04.653Z,21.70
2019-06-07T19:03:32.344Z,21.60
2019-06-07T19:05:59.987Z,21.50
2019-06-07T19:08:27.655Z,21.40
2019-06-07T19:10:55.388Z,21.30
2019-06-07T19:13:23.307Z,21.00
2019-06-07T19:15:51.231Z,20.30
2019-06-07T19:18:18.940Z,19.70
2019-06-07T19:20:46.595Z,19.20
2019-06-07T19:23:14.262Z,18.80
2019-06-07T19:25:41.894Z,18.50
2019-06-07T19:28:09.559Z,18.30
2019-06-07T19:30:37.196Z,18.10
2019-06-07T19:33:04.849Z,18.00
2019-06-07T19:35:32.499Z,17.80
2019-06-07T19:38:00.276Z,17.70
2019-06-07T19:40:28.122Z,17.60
2019-06-07T19:42:56.484Z,17.60
2019-06-07T19:45:30.457Z,17.40
2019-06-07T19:47:54.438Z,17.40
2019-06-07T19:50:22.979Z,17.30
2019-06-07T19:52:50.915Z,17.30
2019-06-07T19:55:18.980Z,17.20
2019-06-07T19:57:50.274Z,17.20
2019-06-07T20:00:18.289Z,17.20
2019-06-07T20:02:45.955Z,17.20
2019-06-07T20:05:14.234Z,17.20
2019-06-07T20:07:41.935Z,17.20
2019-06-07T20:10:09.898Z,17.20
2019-06-07T20:12:37.538Z,17.20
2019-06-07T20:15:24.957Z,17.10
2019-06-07T20:17:35.079Z,17.10
2019-06-07T20:20:04.544Z,17.10
2019-06-07T20:22:32.433Z,17.00
2019-06-07T20:25:00.847Z,16.90
2019-06-07T20:27:28.689Z,16.90
2019-06-07T20:29:56.305Z,16.80
2019-06-07T20:32:23.955Z,16.80
2019-06-07T20:34:51.588Z,16.70
2019-06-07T20:37:19.250Z,16.60
2019-06-07T20:39:46.898Z,16.50
2019-06-07T20:42:14.633Z,16.50
2019-06-07T20:44:42.265Z,16.40
2019-06-07T20:47:09.922Z,16.30
2019-06-07T20:49:37.576Z,16.20
2019-06-07T20:52:06.592Z,16.10
2019-06-07T20:54:34.493Z,16.10
2019-06-07T20:57:02.996Z,16.00
2019-06-07T20:59:32.776Z,16.00
2019-06-07T21:02:00.823Z,16.00
2019-06-07T21:04:28.588Z,16.00
2019-06-07T21:06:56.254Z,16.00
2019-06-07T21:09:23.912Z,16.00
2019-06-07T21:11:51.569Z,15.90
2019-06-07T21:14:19.195Z,15.90
2019-06-07T21:16:46.958Z,15.90
2019-06-07T21:19:14.600Z,15.90
2019-06-07T21:21:42.252Z,15.80
2019-06-07T21:24:10.916Z,15.80
2019-06-07T21:26:38.778Z,15.70
2019-06-07T21:29:07.096Z,15.70
2019-06-07T21:31:34.983Z,15.60
2019-06-07T21:34:03.722Z,15.60
2019-06-07T21:36:32.026Z,15.60
2019-06-07T21:38:59.800Z,15.50
2019-06-07T21:41:27.427Z,15.50
2019-06-07T21:43:55.136Z,15.50
2019-06-07T21:46:22.793Z,15.50
2019-06-07T21:48:50.406Z,15.50
2019-06-07T21:51:18.050Z,15.40
2019-06-07T21:53:45.673Z,15.40
2019-06-07T21:56:13.483Z,15.30
2019-06-07T21:58:41.155Z,15.20
2019-06-07T22:01:19.161Z,15.20
2019-06-07T22:03:47.149Z,15.10
2019-06-07T22:06:14.961Z,15.00
2019-06-07T22:08:42.598Z,15.00
2019-06-07T22:11:10.325Z,15.00
2019-06-07T22:13:37.999Z,15.00
2019-06-07T22:16:22.430Z,15.00
2019-06-07T22:18:35.149Z,15.00
2019-06-07T22:21:02.830Z,15.00
2019-06-07T22:23:30.444Z,14.90
2019-06-07T22:25:58.080Z,14.90
2019-06-07T22:28:25.753Z,14.90
2019-06-07T22:30:53.390Z,14.90
2019-06-07T22:33:21.175Z,14.90
2019-06-07T22:35:48.810Z,14.90
2019-06-07T22:38:16.437Z,14.80
2019-06-07T22:40:44.079Z,14.80
2019-06-07T22:43:11.871Z,14.70
2019-06-07T22:45:39.691Z,14.70
2019-06-07T22:48:07.333Z,14.60
2019-06-07T22:50:35.003Z,14.60
2019-06-07T22:53:02.622Z,14.50
2019-06-07T22:55:30.321Z,14.50
2019-06-07T22:57:58.581Z,14.40
2019-06-07T23:00:27.839Z,13.20
2019-06-07T23:02:55.617Z,14.30
2019-06-07T23:05:23.276Z,14.20
2019-06-07T23:07:50.972Z,14.20
2019-06-07T23:10:19.662Z,14.20
2019-06-07T23:12:47.408Z,14.10
2019-06-07T23:15:15.406Z,14.10
2019-06-07T23:17:43.216Z,14.10
2019-06-07T23:20:11.825Z,14.00
2019-06-07T23:22:39.659Z,14.00
2019-06-07T23:25:07.677Z,13.90
2019-06-07T23:27:35.425Z,13.90
2019-06-07T23:30:08.293Z,13.90
2019-06-07T23:32:32.862Z,13.90
2019-06-07T23:35:00.524Z,13.80
2019-06-07T23:37:28.176Z,13.80
2019-06-07T23:39:55.823Z,13.80
2019-06-07T23:42:23.435Z,13.80
2019-06-07T23:44:51.110Z,13.80
2019-06-07T23:47:20.187Z,13.80
2019-06-07T23:49:48.267Z,13.80
2019-06-07T23:52:15.957Z,13.80
2019-06-07T23:54:43.578Z,13.80
2019-06-07T23:57:12.129Z,13.80
2019-06-07T23:59:39.930Z,13.80
